Time;durP1;ratioP1;P1;durP2;ratioP2;P2;SDS_P1;SDS_P2;PMS_P1;PMS_P2;Temp;Humidity;BMP_temperature;BMP_pressure;BME280_temperature;BME280_humidity;BME280_pressure;Samples;Min_cycle;Max_cycle;Signal;HPM_P1;HPM_P2
2021/04/23 00:01:13;;;;;;;9.45;2.10;;;5.40;67.40;;;;;;4957847;29;20019;-90
2021/04/23 00:03:46;;;;;;;5.88;1.90;;;5.30;67.50;;;;;;4941425;29;20023;-91
2021/04/23 00:06:13;;;;;;;3.35;1.80;;;5.20;67.60;;;;;;4941904;29;20562;-89
2021/04/23 00:08:44;;;;;;;7.90;2.13;;;5.20;67.90;;;;;;4941396;29;20098;-91
2021/04/23 00:11:10;;;;;;;;;;;5.20;68.00;;;;;;4958053;29;20023;-90
2021/04/23 00:13:38;;;;;;;4.45;1.63;;;5.20;68.10;;;;;;4957807;29;20281;-90
2021/04/23 00:16:04;;;;;;;5.10;1.70;;;5.10;67.90;;;;;;4957620;29;20027;-90
2021/04/23 00:18:30;;;;;;;7.85;2.40;;;5.10;68.00;;;;;;4959041;29;20043;-91
2021/04/23 00:20:56;;;;;;;6.72;2.08;;;5.10;68.10;;;;;;4960233;29;20023;-90
2021/04/23 00:23:23;;;;;;;5.75;1.80;;;5.00;68.20;;;;;;4945573;29;20054;-90
2021/04/23 00:25:49;;;;;;;7.32;1.85;;;5.00;68.50;;;;;;4943889;29;20031;-90
2021/04/23 00:28:17;;;;;;;7.43;1.83;;;4.90;68.60;;;;;;4940231;29;20035;-90
2021/04/23 00:30:47;;;;;;;4.57;1.77;;;4.80;68.70;;;;;;4956175;29;20043;-91
2021/04/23 00:33:13;;;;;;;4.32;1.73;;;4.80;69.00;;;;;;4937043;29;20039;-91
2021/04/23 00:35:42;;;;;;;7.40;2.10;;;4.70;69.00;;;;;;4939246;29;20031;-90
2021/04/23 00:38:14;;;;;;;7.80;1.85;;;4.70;69.30;;;;;;4939682;29;20029;-89
2021/04/23 00:40:50;;;;;;;4.65;1.98;;;4.60;69.40;;;;;;4955021;29;20118;-90
2021/04/23 00:43:18;;;;;;;5.15;1.90;;;4.50;69.40;;;;;;4954725;28;20074;-90
2021/04/23 00:45:46;;;;;;;5.22;1.63;;;4.50;69.70;;;;;;4954445;29;20077;-91
2021/04/23 00:48:12;;;;;;;8.85;2.28;;;4.40;69.80;;;;;;4955215;29;20050;-92
2021/04/23 00:50:50;;;;;;;5.82;1.80;;;4.40;69.80;;;;;;4938168;29;20474;-89
2021/04/23 00:53:28;;;;;;;7.40;2.00;;;4.30;69.90;;;;;;4937945;29;20031;-92
2021/04/23 00:55:58;;;;;;;7.28;1.73;;;4.30;70.20;;;;;;4938008;29;20062;-92
2021/04/23 00:58:26;;;;;;;6.13;1.48;;;4.20;70.30;;;;;;4938111;29;20031;-90
2021/04/23 01:00:55;;;;;;;7.00;1.95;;;4.20;70.60;;;;;;4955198;29;20042;-89
2021/04/23 01:03:22;;;;;;;6.97;2.40;;;4.10;70.50;;;;;;4955223;29;20583;-92
2021/04/23 01:05:51;;;;;;;8.18;2.75;;;4.00;70.60;;;;;;4938061;29;20027;-90
2021/04/23 01:08:18;;;;;;;7.80;1.95;;;4.00;70.90;;;;;;4955919;29;20027;-90
2021/04/23 01:10:44;;;;;;;5.78;1.75;;;3.90;71.00;;;;;;4937536;29;20023;-91
2021/04/23 01:13:10;;;;;;;6.88;1.90;;;3.80;71.10;;;;;;4937773;29;20038;-91
2021/04/23 01:15:35;;;;;;;3.53;1.40;;;3.70;71.30;;;;;;4944808;29;20035;-90
2021/04/23 01:18:01;;;;;;;5.90;2.25;;;3.70;71.50;;;;;;4938992;29;20031;-90
2021/04/23 01:20:27;;;;;;;7.15;1.52;;;3.70;71.90;;;;;;4937061;29;20074;-90
2021/04/23 01:22:53;;;;;;;7.25;1.65;;;3.70;72.00;;;;;;4934378;29;20023;-90
2021/04/23 01:25:22;;;;;;;5.35;2.03;;;3.60;71.90;;;;;;4937260;29;20037;-90
2021/04/23 01:27:47;;;;;;;6.18;2.03;;;3.60;72.10;;;;;;4937607;29;20046;-91
2021/04/23 01:30:17;;;;;;;5.78;1.45;;;3.50;72.20;;;;;;4937626;29;20487;-91
2021/04/23 01:32:43;;;;;;;2.83;1.35;;;3.50;72.30;;;;;;4938075;29;20117;-90
2021/04/23 01:35:13;;;;;;;4.13;1.80;;;3.40;72.30;;;;;;4954390;29;20030;-90
2021/04/23 01:37:39;;;;;;;5.18;1.85;;;3.40;72.60;;;;;;4954977;29;20030;-90
2021/04/23 01:40:08;;;;;;;7.18;1.75;;;3.40;72.80;;;;;;4938356;29;20078;-90
2021/04/23 01:42:37;;;;;;;5.95;1.85;;;3.30;72.90;;;;;;4934026;29;20844;-90
2021/04/23 01:45:06;;;;;;;10.77;1.75;;;3.30;73.60;;;;;;4938647;29;20154;-91
2021/04/23 01:47:32;;;;;;;6.43;1.50;;;3.30;73.00;;;;;;4938561;29;20031;-91
2021/04/23 01:49:58;;;;;;;8.90;1.67;;;3.30;73.10;;;;;;4937621;29;20035;-90
2021/04/23 01:52:24;;;;;;;7.10;2.17;;;3.20;73.10;;;;;;4952294;29;20031;-91
2021/04/23 01:54:50;;;;;;;8.57;1.88;;;3.10;73.10;;;;;;4937187;29;20518;-89
2021/04/23 01:57:17;;;;;;;7.30;2.08;;;3.10;73.30;;;;;;4945897;29;20051;-89
2021/04/23 01:59:45;;;;;;;11.40;2.95;;;3.00;73.40;;;;;;4956198;29;20023;-90
2021/04/23 02:02:12;;;;;;;4.75;1.80;;;2.90;73.50;;;;;;4955316;29;20020;-89
2021/04/23 02:04:37;;;;;;;8.05;2.08;;;2.90;73.70;;;;;;4937586;29;20031;-90
2021/04/23 02:07:05;;;;;;;5.88;1.67;;;2.80;73.90;;;;;;4945150;29;20111;-90
2021/04/23 02:09:32;;;;;;;5.70;2.03;;;2.80;74.10;;;;;;4945605;29;20031;-90
2021/04/23 02:11:58;;;;;;;3.95;1.75;;;2.80;74.10;;;;;;4959685;29;20023;-89
2021/04/23 02:14:25;;;;;;;9.23;2.08;;;2.70;74.10;;;;;;4957488;29;20070;-90
2021/04/23 02:16:52;;;;;;;7.05;2.05;;;2.70;74.60;;;;;;4956398;29;20556;-89
2021/04/23 02:19:19;;;;;;;7.90;1.92;;;2.70;74.60;;;;;;4955902;29;20509;-89
2021/04/23 02:21:46;;;;;;;7.78;1.90;;;2.60;74.50;;;;;;4937157;29;20039;-89
2021/04/23 02:24:12;;;;;;;9.45;2.05;;;2.60;74.70;;;;;;4936093;29;20383;-89
2021/04/23 02:26:38;;;;;;;3.33;1.38;;;2.60;75.40;;;;;;4937202;29;20031;-90
2021/04/23 02:29:09;;;;;;;4.95;1.55;;;2.50;75.60;;;;;;4946277;28;20042;-89
2021/04/23 02:31:37;;;;;;;7.50;2.17;;;2.50;74.90;;;;;;4938168;28;20047;-90
2021/04/23 02:34:06;;;;;;;7.82;1.92;;;2.40;75.00;;;;;;4938601;28;20043;-89
2021/04/23 02:36:32;;;;;;;3.80;1.50;;;2.40;75.20;;;;;;4939632;28;20027;-89
2021/04/23 02:38:58;;;;;;;6.13;1.52;;;2.40;75.20;;;;;;4939707;28;20054;-90
2021/04/23 02:41:25;;;;;;;4.22;1.90;;;2.40;75.40;;;;;;4941254;29;20027;-89
2021/04/23 02:43:56;;;;;;;4.68;1.65;;;2.40;75.40;;;;;;4955847;28;20027;-90
2021/04/23 02:46:24;;;;;;;8.45;2.13;;;2.40;75.50;;;;;;4936958;29;20043;-89
2021/04/23 02:48:50;;;;;;;8.25;1.75;;;2.40;75.50;;;;;;4954982;28;20058;-91
2021/04/23 02:51:29;;;;;;;7.65;1.75;;;2.40;75.60;;;;;;4938238;29;20061;-90
2021/04/23 02:53:57;;;;;;;4.90;1.65;;;2.30;75.80;;;;;;4939714;28;20031;-90
2021/04/23 02:56:24;;;;;;;4.78;1.60;;;2.40;76.00;;;;;;4955031;28;20522;-90
2021/04/23 02:58:51;;;;;;;6.38;1.85;;;2.40;75.90;;;;;;4938306;29;20184;-91
2021/04/23 03:01:20;;;;;;;3.28;1.40;;;2.40;75.80;;;;;;4938266;29;20054;-91
2021/04/23 03:03:50;;;;;;;6.88;2.00;;;2.30;75.70;;;;;;4938326;29;20494;-89
2021/04/23 03:06:15;;;;;;;3.40;1.45;;;2.20;75.90;;;;;;4937818;29;20398;-90
2021/04/23 03:08:42;;;;;;;4.65;1.70;;;2.20;76.10;;;;;;4956319;29;20035;-90
2021/04/23 03:11:12;;;;;;;4.95;1.67;;;2.10;76.10;;;;;;4939550;29;20060;-90
2021/04/23 03:13:40;;;;;;;3.65;1.67;;;2.00;76.30;;;;;;4938996;29;20118;-91
2021/04/23 03:16:08;;;;;;;9.50;1.90;;;2.00;76.40;;;;;;4937828;29;20191;-91
2021/04/23 03:18:37;;;;;;;5.32;1.90;;;1.90;76.50;;;;;;4960804;29;20181;-90
2021/04/23 03:21:05;;;;;;;5.68;1.65;;;1.90;76.70;;;;;;4953388;29;20024;-87
2021/04/23 03:23:31;;;;;;;6.03;2.10;;;1.90;76.90;;;;;;4959069;29;20031;-88
2021/04/23 03:26:07;;;;;;;5.22;2.10;;;1.80;76.90;;;;;;4975989;28;20019;-88
2021/04/23 03:28:34;;;;;;;5.65;1.75;;;1.80;77.00;;;;;;4962246;29;20038;-89
2021/04/23 03:31:01;;;;;;;3.35;1.60;;;1.80;77.10;;;;;;4940774;29;20047;-89
2021/04/23 03:33:27;;;;;;;5.80;1.77;;;1.70;77.30;;;;;;4940296;29;20043;-90
2021/04/23 03:35:56;;;;;;;8.23;1.70;;;1.70;77.40;;;;;;4936756;29;20019;-88
2021/04/23 03:38:24;;;;;;;6.82;1.60;;;1.60;77.40;;;;;;4955971;29;20085;-91
2021/04/23 03:40:50;;;;;;;2.63;1.40;;;1.70;77.60;;;;;;4938768;29;20148;-90
2021/04/23 03:43:16;;;;;;;5.80;2.20;;;1.70;77.80;;;;;;4951738;29;20058;-89
2021/04/23 03:45:42;;;;;;;6.28;1.95;;;1.70;77.80;;;;;;4936175;29;20054;-90
2021/04/23 03:48:09;;;;;;;6.47;1.55;;;1.70;77.90;;;;;;4953299;29;20479;-90
2021/04/23 03:50:37;;;;;;;9.75;2.20;;;1.70;77.90;;;;;;4935702;29;20090;-91
2021/04/23 03:53:06;;;;;;;6.75;1.85;;;1.60;77.80;;;;;;4935989;29;20479;-91
2021/04/23 03:55:34;;;;;;;3.88;1.60;;;1.60;78.10;;;;;;4954151;29;20298;-91
2021/04/23 03:58:01;;;;;;;6.95;1.77;;;1.60;78.40;;;;;;4936626;29;20035;-90
2021/04/23 04:00:40;;;;;;;6.63;1.50;;;1.70;78.50;;;;;;4936567;29;20023;-90
2021/04/23 04:03:06;;;;;;;8.98;1.83;;;1.60;78.20;;;;;;4936976;29;20074;-91
2021/04/23 04:05:33;;;;;;;12.20;2.20;;;1.60;78.20;;;;;;4936906;29;20027;-90
2021/04/23 04:07:59;;;;;;;4.10;1.85;;;1.50;78.30;;;;;;4953479;29;20470;-91
2021/04/23 04:10:25;;;;;;;6.95;2.08;;;1.40;78.30;;;;;;4936027;29;20035;-90
2021/04/23 04:12:51;;;;;;;3.75;1.88;;;1.30;78.50;;;;;;4938069;29;20038;-90
2021/04/23 04:15:17;;;;;;;10.15;2.00;;;1.30;78.60;;;;;;4939665;29;20031;-90
2021/04/23 04:17:43;;;;;;;7.72;1.98;;;1.20;78.90;;;;;;4938967;29;20027;-90
2021/04/23 04:20:11;;;;;;;5.97;2.00;;;1.20;79.10;;;;;;4941402;29;20047;-90
2021/04/23 04:22:37;;;;;;;3.63;1.88;;;1.20;79.30;;;;;;4939190;29;20058;-90
2021/04/23 04:25:05;;;;;;;5.00;2.20;;;1.20;79.40;;;;;;4939324;29;20039;-90
2021/04/23 04:27:30;;;;;;;3.72;1.75;;;1.20;79.40;;;;;;4956712;29;20035;-89
2021/04/23 04:29:56;;;;;;;3.20;1.80;;;1.20;79.50;;;;;;4945615;29;20066;-90
2021/04/23 04:32:22;;;;;;;7.32;2.13;;;1.30;79.70;;;;;;4939330;29;20051;-88
2021/04/23 04:34:48;;;;;;;8.65;1.95;;;1.30;79.70;;;;;;4940516;29;20039;-88
2021/04/23 04:37:14;;;;;;;6.03;1.90;;;1.20;79.70;;;;;;4957960;29;20027;-88
2021/04/23 04:39:40;;;;;;;7.40;1.92;;;1.20;79.80;;;;;;4938792;29;20050;-89
2021/04/23 04:42:06;;;;;;;4.85;1.88;;;1.20;80.00;;;;;;4938833;29;20027;-90
2021/04/23 04:44:34;;;;;;;6.15;1.77;;;1.20;80.00;;;;;;4938720;29;20086;-90
2021/04/23 04:47:00;;;;;;;2.63;1.67;;;1.20;80.70;;;;;;4938365;29;20088;-90
2021/04/23 04:49:26;;;;;;;5.47;1.88;;;1.10;80.10;;;;;;4938098;29;20027;-89
2021/04/23 04:51:51;;;;;;;4.95;1.80;;;1.00;80.20;;;;;;4938456;29;20042;-90
2021/04/23 04:54:17;;;;;;;5.05;1.75;;;1.00;80.40;;;;;;4956329;29;20039;-90
2021/04/23 04:56:43;;;;;;;6.32;1.95;;;0.90;80.50;;;;;;4956137;29;20031;-90
2021/04/23 04:59:09;;;;;;;5.40;1.80;;;0.90;80.70;;;;;;4938630;29;20481;-89
2021/04/23 05:01:34;;;;;;;3.42;1.55;;;0.80;80.90;;;;;;4941919;29;20040;-90
2021/04/23 05:04:00;;;;;;;4.63;1.60;;;0.80;81.10;;;;;;4946372;29;20045;-88
2021/04/23 05:06:26;;;;;;;10.43;2.47;;;0.80;81.20;;;;;;4947332;29;20094;-89
2021/04/23 05:08:51;;;;;;;8.88;2.85;;;0.80;81.30;;;;;;4944724;29;20099;-88
2021/04/23 05:11:18;;;;;;;10.07;2.03;;;0.70;81.50;;;;;;4959559;29;20035;-87
2021/04/23 05:13:43;;;;;;;4.75;2.17;;;0.70;81.80;;;;;;4956672;29;20054;-88
2021/04/23 05:16:09;;;;;;;7.70;2.10;;;0.70;82.00;;;;;;4938428;29;20066;-90
2021/04/23 05:18:34;;;;;;;5.97;2.00;;;0.60;82.20;;;;;;4938838;29;20058;-90
2021/04/23 05:21:00;;;;;;;4.30;1.80;;;0.60;83.10;;;;;;4938679;29;20059;-90
2021/04/23 05:23:26;;;;;;;9.75;2.13;;;0.60;82.60;;;;;;4956354;29;20102;-89
2021/04/23 05:25:52;;;;;;;8.48;1.80;;;0.60;83.40;;;;;;4957016;28;20122;-91
2021/04/23 05:28:18;;;;;;;6.03;1.90;;;0.50;82.90;;;;;;4947750;28;20145;-90
2021/04/23 05:30:44;;;;;;;9.20;1.70;;;0.50;83.10;;;;;;4941388;28;20138;-89
2021/04/23 05:33:10;;;;;;;7.97;2.10;;;0.50;83.30;;;;;;4940484;29;20118;-90
2021/04/23 05:35:40;;;;;;;8.60;2.42;;;0.50;83.40;;;;;;4938199;29;20035;-89
2021/04/23 05:38:06;;;;;;;4.88;1.80;;;0.50;83.50;;;;;;4937962;29;20019;-89
2021/04/23 05:40:39;;;;;;;6.88;2.10;;;0.40;83.80;;;;;;4954301;28;20034;-90
2021/04/23 05:43:05;;;;;;;10.10;2.22;;;0.40;84.00;;;;;;4934360;29;20023;-89
2021/04/23 05:45:33;;;;;;;9.93;2.13;;;0.40;84.30;;;;;;4936676;29;20027;-90
2021/04/23 05:47:58;;;;;;;8.15;2.00;;;0.40;84.40;;;;;;4953204;28;20041;-89
2021/04/23 05:50:26;;;;;;;7.60;3.17;;;0.40;84.60;;;;;;4937875;28;20102;-88
2021/04/23 05:52:53;;;;;;;12.95;3.30;;;0.40;85.00;;;;;;4935639;29;20019;-90
2021/04/23 05:55:21;;;;;;;10.82;3.22;;;0.40;85.20;;;;;;4937233;28;20050;-89
2021/04/23 05:57:47;;;;;;;10.23;2.63;;;0.40;85.50;;;;;;4938810;29;20031;-88
2021/04/23 06:00:18;;;;;;;12.00;2.67;;;0.40;85.70;;;;;;4937020;29;20039;-89
2021/04/23 06:02:44;;;;;;;;;;;0.40;86.00;;;;;;4938271;28;20034;-88
2021/04/23 06:05:10;;;;;;;8.65;2.30;;;0.40;86.30;;;;;;4954843;28;20385;-87
2021/04/23 06:07:36;;;;;;;8.00;2.03;;;0.40;86.30;;;;;;4946185;28;20626;-89
2021/04/23 06:10:06;;;;;;;9.30;2.33;;;0.50;86.40;;;;;;4952559;28;20035;-89
2021/04/23 06:12:32;;;;;;;8.05;2.42;;;0.60;86.50;;;;;;4935866;29;20034;-88
2021/04/23 06:14:57;;;;;;;6.97;2.08;;;0.60;86.50;;;;;;4945605;29;20399;-89
2021/04/23 06:17:23;;;;;;;11.93;2.63;;;0.60;86.80;;;;;;4938063;29;20035;-88
2021/04/23 06:19:49;;;;;;;5.78;2.00;;;0.70;87.00;;;;;;4938164;29;20031;-88
2021/04/23 06:22:15;;;;;;;10.95;2.08;;;0.70;87.20;;;;;;4935945;29;20038;-89
2021/04/23 06:24:40;;;;;;;8.45;3.08;;;0.80;87.40;;;;;;4947506;28;20758;-89
2021/04/23 06:27:06;;;;;;;6.78;2.42;;;0.80;87.50;;;;;;4937683;29;20047;-89
2021/04/23 06:29:33;;;;;;;7.15;2.30;;;0.80;87.70;;;;;;4937689;28;20031;-89
2021/04/23 06:31:59;;;;;;;5.18;2.20;;;0.90;88.00;;;;;;4938017;28;20074;-90
2021/04/23 06:34:25;;;;;;;7.22;2.88;;;1.00;88.20;;;;;;4937018;28;20035;-91
2021/04/23 06:36:51;;;;;;;8.70;2.63;;;1.00;88.30;;;;;;4954262;28;20490;-89
2021/04/23 06:39:18;;;;;;;11.95;2.92;;;1.10;88.40;;;;;;4952990;29;20031;-90
2021/04/23 06:41:48;;;;;;;7.93;2.83;;;1.20;88.40;;;;;;4936982;29;20061;-88
2021/04/23 06:44:20;;;;;;;7.60;2.40;;;1.20;88.60;;;;;;4941088;29;20043;-87
2021/04/23 06:46:47;;;;;;;8.10;1.98;;;1.30;88.60;;;;;;4945301;28;20041;-89
2021/04/23 06:49:13;;;;;;;11.52;3.30;;;1.30;88.90;;;;;;4959047;28;20051;-88
2021/04/23 06:51:39;;;;;;;10.88;2.53;;;1.50;89.00;;;;;;4939086;29;20486;-89
2021/04/23 06:54:06;;;;;;;8.65;2.03;;;1.50;89.10;;;;;;4936927;28;20035;-88
2021/04/23 06:56:32;;;;;;;6.47;2.72;;;1.60;89.30;;;;;;4936118;28;20234;-90
2021/04/23 06:58:58;;;;;;;7.15;2.13;;;1.70;89.50;;;;;;4954159;28;20070;-89
2021/04/23 07:01:24;;;;;;;12.38;2.50;;;1.80;89.60;;;;;;4938259;28;20019;-90
2021/04/23 07:03:51;;;;;;;8.35;2.65;;;1.90;89.60;;;;;;4955698;28;20051;-90
2021/04/23 07:06:17;;;;;;;13.05;2.33;;;2.00;89.50;;;;;;4938681;29;20027;-90
2021/04/23 07:08:42;;;;;;;18.20;2.85;;;2.00;89.50;;;;;;4936573;28;20027;-89
2021/04/23 07:11:09;;;;;;;12.15;2.88;;;2.10;89.60;;;;;;4939371;28;20031;-89
2021/04/23 07:13:34;;;;;;;9.85;2.60;;;2.20;89.70;;;;;;4948450;29;20059;-91
2021/04/23 07:16:00;;;;;;;8.88;2.33;;;2.30;90.00;;;;;;4962266;28;20033;-90
2021/04/23 07:18:27;;;;;;;10.73;2.72;;;2.40;90.00;;;;;;4957930;29;20031;-88
2021/04/23 07:20:57;;;;;;;8.80;2.55;;;2.50;90.00;;;;;;4962614;28;20137;-90
2021/04/23 07:23:22;;;;;;;11.27;2.97;;;2.50;90.00;;;;;;4951763;29;20400;-88
2021/04/23 07:25:48;;;;;;;11.95;2.80;;;2.70;90.10;;;;;;4943731;29;20035;-88
2021/04/23 07:28:14;;;;;;;12.00;3.15;;;2.70;90.10;;;;;;4940627;29;20035;-88
2021/04/23 07:30:41;;;;;;;8.32;2.65;;;2.90;90.20;;;;;;4939821;29;20043;-89
2021/04/23 07:33:12;;;;;;;11.80;3.30;;;3.00;90.20;;;;;;4937916;29;20225;-88
2021/04/23 07:35:40;;;;;;;10.63;3.17;;;3.00;90.20;;;;;;4954034;29;20514;-90
2021/04/23 07:38:06;;;;;;;12.48;4.10;;;3.20;90.20;;;;;;4954323;29;20023;-89
2021/04/23 07:40:32;;;;;;;7.07;2.42;;;3.30;90.30;;;;;;4954805;29;20407;-90
2021/04/23 07:43:00;;;;;;;7.70;2.90;;;3.50;90.30;;;;;;4935648;29;20023;-89
2021/04/23 07:45:26;;;;;;;5.47;2.08;;;3.60;90.30;;;;;;4952762;28;20478;-89
2021/04/23 07:47:51;;;;;;;14.18;3.72;;;3.70;90.20;;;;;;4935532;29;20035;-88
2021/04/23 07:50:20;;;;;;;8.63;2.88;;;3.80;90.10;;;;;;4938472;29;20039;-89
2021/04/23 07:52:46;;;;;;;14.57;3.08;;;4.00;90.10;;;;;;4955370;28;20031;-90
2021/04/23 07:55:13;;;;;;;9.05;2.65;;;4.10;90.10;;;;;;4940707;28;20049;-90
2021/04/23 07:57:39;;;;;;;13.02;3.33;;;4.20;90.00;;;;;;4939252;28;20038;-91
2021/04/23 08:00:07;;;;;;;17.70;3.42;;;4.40;90.00;;;;;;4940851;28;20081;-90
2021/04/23 08:02:33;;;;;;;12.93;2.92;;;4.50;90.00;;;;;;4940390;29;20082;-90
2021/04/23 08:04:59;;;;;;;10.98;3.00;;;4.70;89.90;;;;;;4942526;28;20043;-90
2021/04/23 08:07:24;;;;;;;12.40;4.15;;;4.80;89.70;;;;;;4963704;28;20074;-92
2021/04/23 08:09:50;;;;;;;14.25;3.15;;;5.00;89.60;;;;;;4948467;29;20099;-92
2021/04/23 08:12:17;;;;;;;10.32;2.80;;;5.20;89.50;;;;;;4941983;28;20034;-91
2021/04/23 08:14:42;;;;;;;8.90;2.78;;;5.30;89.40;;;;;;4937072;29;20097;-90
2021/04/23 08:17:08;;;;;;;7.30;2.50;;;5.60;89.10;;;;;;4943093;28;20028;-91
2021/04/23 08:19:35;;;;;;;11.88;3.55;;;5.70;88.60;;;;;;4960219;28;20418;-90
2021/04/23 08:22:02;;;;;;;11.27;3.08;;;5.90;89.10;;;;;;4941681;29;20023;-91
2021/04/23 08:24:28;;;;;;;10.75;2.58;;;6.10;88.00;;;;;;4942508;29;20030;-91
2021/04/23 08:26:55;;;;;;;12.77;2.78;;;6.30;87.50;;;;;;4940960;29;20027;-91
2021/04/23 08:29:21;;;;;;;15.63;3.45;;;6.50;86.90;;;;;;4938836;29;20031;-91
2021/04/23 08:31:47;;;;;;;13.73;2.80;;;6.70;86.50;;;;;;4940891;29;20110;-91
2021/04/23 08:34:13;;;;;;;9.82;2.50;;;6.90;86.00;;;;;;4939469;29;20413;-90
2021/04/23 08:36:39;;;;;;;11.32;3.05;;;7.20;85.50;;;;;;4956816;29;20051;-90
2021/04/23 08:39:07;;;;;;;10.23;2.83;;;7.40;84.90;;;;;;4941018;29;20050;-91
2021/04/23 08:44:01;;;;;;;7.15;1.63;;;7.90;83.30;;;;;;4909472;29;20031;-90
2021/04/23 08:46:28;;;;;;;6.07;1.40;;;8.20;82.50;;;;;;4938551;29;20047;-91
2021/04/23 08:48:55;;;;;;;6.80;1.42;;;8.50;81.00;;;;;;4938626;29;20027;-91
2021/04/23 08:51:22;;;;;;;6.40;1.98;;;8.80;79.10;;;;;;4933772;29;20158;-91
2021/04/23 08:53:51;;;;;;;6.50;1.13;;;9.00;76.80;;;;;;4934101;28;20126;-91
2021/04/23 08:56:18;;;;;;;8.02;1.67;;;9.30;75.20;;;;;;4941942;28;20031;-90
2021/04/23 08:58:44;;;;;;;4.30;1.25;;;9.60;74.00;;;;;;4948069;29;20055;-91
2021/04/23 09:01:10;;;;;;;5.55;1.48;;;9.90;72.70;;;;;;4948384;29;20086;-92
2021/04/23 09:03:35;;;;;;;5.20;1.35;;;10.20;71.30;;;;;;4942573;29;20039;-92
2021/04/23 09:06:08;;;;;;;6.03;1.27;;;10.40;70.20;;;;;;4957146;28;20114;-92
2021/04/23 09:08:35;;;;;;;7.68;1.23;;;10.70;68.70;;;;;;4939267;29;20038;-92
2021/04/23 09:11:21;;;;;;;7.10;1.42;;;11.00;67.40;;;;;;4941146;28;20033;-94
2021/04/23 09:14:19;;;;;;;5.57;1.40;;;11.20;66.30;;;;;;4943196;29;20043;-93
2021/04/23 09:16:45;;;;;;;3.05;1.30;;;11.60;64.40;;;;;;4927834;29;20031;-94
2021/04/23 09:19:27;;;;;;;3.00;1.23;;;11.80;64.00;;;;;;4946493;29;20475;-94
2021/04/23 09:22:03;;;;;;;6.28;1.25;;;12.10;62.80;;;;;;4939168;29;20035;-92
2021/04/23 09:24:38;;;;;;;4.32;1.10;;;12.30;62.00;;;;;;4961733;29;20031;-93
2021/04/23 09:27:12;;;;;;;6.32;1.58;;;12.60;59.90;;;;;;4954455;29;20027;-94
2021/04/23 09:29:42;;;;;;;7.47;1.25;;;12.80;58.80;;;;;;4972675;29;20024;-93
2021/04/23 09:32:14;;;;;;;2.42;1.67;;;12.90;58.00;;;;;;4961661;28;20074;-94
2021/04/23 09:34:52;;;;;;;5.93;1.10;;;13.10;57.00;;;;;;4978247;28;20039;-90
2021/04/23 09:37:19;;;;;;;2.58;1.23;;;13.30;56.50;;;;;;4952934;29;20043;-93
2021/04/23 09:39:46;;;;;;;8.13;2.33;;;13.50;56.10;;;;;;4945492;29;20082;-94
2021/04/23 09:42:12;;;;;;;7.72;1.77;;;13.70;55.30;;;;;;4943136;29;20035;-93
2021/04/23 09:44:40;;;;;;;2.80;1.40;;;13.80;54.70;;;;;;4942806;29;20047;-94
2021/04/23 09:47:13;;;;;;;2.60;1.33;;;14.00;54.30;;;;;;4959533;29;20054;-93
2021/04/23 09:49:39;;;;;;;5.10;1.13;;;14.30;53.70;;;;;;4943262;29;20034;-94
2021/04/23 09:52:07;;;;;;;5.20;1.67;;;14.40;53.30;;;;;;4940334;29;20517;-93
2021/04/23 09:54:35;;;;;;;7.03;1.88;;;14.60;52.60;;;;;;4957655;29;20039;-95
2021/04/23 09:57:11;;;;;;;2.45;1.20;;;14.70;52.10;;;;;;4938261;29;20019;-95
2021/04/23 09:59:53;;;;;;;3.22;1.48;;;14.80;50.90;;;;;;4939939;29;20031;-94
2021/04/23 10:02:22;;;;;;;7.88;1.60;;;14.90;49.90;;;;;;4943925;29;20028;-92
2021/04/23 10:04:47;;;;;;;2.78;1.27;;;14.90;49.80;;;;;;4950831;29;20031;-94
2021/04/23 10:07:13;;;;;;;4.47;1.60;;;15.00;49.80;;;;;;4935245;29;20031;-93
2021/04/23 10:10:06;;;;;;;3.00;1.08;;;15.00;48.90;;;;;;4950739;29;20125;-93
2021/04/23 10:12:43;;;;;;;4.60;1.42;;;15.10;48.70;;;;;;4940884;29;20027;-94
2021/04/23 10:15:22;;;;;;;2.30;1.10;;;15.20;48.60;;;;;;4948477;29;20465;-94
2021/04/23 10:17:50;;;;;;;6.68;1.40;;;15.30;48.80;;;;;;4965470;28;20031;-93
2021/04/23 10:20:19;;;;;;;4.80;1.30;;;15.40;48.70;;;;;;4948473;29;20035;-94
2021/04/23 10:22:45;;;;;;;3.65;1.40;;;15.60;48.60;;;;;;4948099;29;20026;-94
2021/04/23 10:25:12;;;;;;;4.20;1.40;;;15.80;48.40;;;;;;4943826;29;20387;-94
2021/04/23 10:27:41;;;;;;;5.82;1.30;;;16.00;48.10;;;;;;4939092;29;20529;-94
2021/04/23 10:30:18;;;;;;;3.88;1.20;;;16.20;47.80;;;;;;4939476;29;20019;-92
2021/04/23 10:32:52;;;;;;;3.08;1.27;;;16.40;48.10;;;;;;4937568;29;20055;-93
2021/04/23 10:35:19;;;;;;;4.25;1.10;;;16.60;47.30;;;;;;4937401;29;20040;-91
2021/04/23 10:37:47;;;;;;;5.65;1.42;;;16.70;46.40;;;;;;4937546;29;20023;-92
2021/04/23 10:40:15;;;;;;;7.20;1.40;;;16.80;46.20;;;;;;4954887;29;20035;-93
2021/04/23 10:42:54;;;;;;;7.63;1.30;;;16.90;45.40;;;;;;4934824;29;20019;-94
2021/04/23 10:45:25;;;;;;;2.55;1.30;;;16.90;45.40;;;;;;4937396;29;20040;-94
2021/04/23 10:47:55;;;;;;;5.13;1.50;;;17.00;46.00;;;;;;4940014;29;20479;-93
2021/04/23 10:50:24;;;;;;;5.60;1.38;;;17.10;44.90;;;;;;4938089;29;20487;-92
2021/04/23 10:53:11;;;;;;;5.18;1.38;;;17.10;44.10;;;;;;4936970;29;20042;-93
2021/04/23 10:55:48;;;;;;;4.18;1.25;;;17.10;44.20;;;;;;4937059;29;20071;-93
2021/04/23 10:58:35;;;;;;;3.35;1.75;;;17.20;44.40;;;;;;4937759;29;20089;-94
2021/04/23 11:01:03;;;;;;;4.15;1.40;;;17.20;44.00;;;;;;4937119;29;20035;-95
2021/04/23 11:03:35;;;;;;;4.20;1.40;;;17.30;44.10;;;;;;4938404;29;20118;-93
2021/04/23 11:06:12;;;;;;;6.57;1.40;;;17.30;44.10;;;;;;4937375;29;20043;-93
2021/04/23 11:08:39;;;;;;;3.30;1.40;;;17.50;43.60;;;;;;4943118;29;20046;-93
2021/04/23 11:11:12;;;;;;;5.50;2.08;;;17.60;43.10;;;;;;4944965;29;20023;-94
2021/04/23 11:13:40;;;;;;;4.30;1.75;;;17.70;43.00;;;;;;4943097;29;20031;-93
2021/04/23 11:16:27;;;;;;;6.10;2.10;;;17.70;42.70;;;;;;4961543;29;20035;-94
2021/04/23 11:18:58;;;;;;;3.53;1.55;;;17.90;42.60;;;;;;4943689;29;20033;-93
2021/04/23 11:21:27;;;;;;;3.70;1.60;;;18.00;42.70;;;;;;4943279;29;20046;-93
2021/04/23 11:24:15;;;;;;;3.80;1.50;;;18.20;42.70;;;;;;4958278;29;20035;-94
2021/04/23 11:27:06;;;;;;;3.20;1.35;;;18.40;42.20;;;;;;4939884;29;20025;-91
2021/04/23 11:29:36;;;;;;;7.22;1.58;;;18.50;42.00;;;;;;4942201;29;20051;-92
2021/04/23 11:32:12;;;;;;;4.75;1.60;;;18.60;42.00;;;;;;4942713;29;20051;-93
2021/04/23 11:34:40;;;;;;;3.38;1.52;;;18.70;41.90;;;;;;4940254;29;20518;-91
2021/04/23 11:37:13;;;;;;;4.07;1.35;;;18.70;41.60;;;;;;4941041;29;20379;-92
2021/04/23 11:39:45;;;;;;;9.52;2.45;;;18.90;41.60;;;;;;4941185;29;20090;-93
2021/04/23 11:42:21;;;;;;;4.25;1.65;;;18.80;41.00;;;;;;4945013;29;20095;-92
2021/04/23 11:45:02;;;;;;;4.93;1.70;;;18.80;41.20;;;;;;4941232;29;20098;-91
2021/04/23 11:47:32;;;;;;;;;;;18.90;41.40;;;;;;4961197;29;20023;-93
2021/04/23 11:50:17;;;;;;;8.13;1.90;;;19.20;41.50;;;;;;4941766;29;19914;-92
2021/04/23 11:53:07;;;;;;;3.80;1.75;;;19.20;40.20;;;;;;4942660;29;20090;-92
2021/04/23 11:55:36;;;;;;;5.00;1.80;;;19.30;40.00;;;;;;4941845;29;20042;-93
2021/04/23 11:58:13;;;;;;;7.78;2.22;;;19.50;39.90;;;;;;4942000;29;20035;-92
2021/04/23 12:00:46;;;;;;;4.85;1.30;;;19.50;39.60;;;;;;4964402;29;20070;-92
2021/04/23 12:03:19;;;;;;;5.93;1.63;;;19.70;39.10;;;;;;4954122;29;20041;-91
2021/04/23 12:05:50;;;;;;;5.18;1.90;;;19.80;38.40;;;;;;4953091;29;20023;-91
2021/04/23 12:08:21;;;;;;;2.90;1.45;;;19.80;38.00;;;;;;4952438;29;20019;-92
2021/04/23 12:10:49;;;;;;;4.90;1.75;;;19.90;38.00;;;;;;4970444;29;20166;-92
2021/04/23 12:13:24;;;;;;;6.20;2.33;;;20.00;38.40;;;;;;4972398;29;20390;-91
2021/04/23 12:15:53;;;;;;;8.68;2.47;;;20.10;38.50;;;;;;4953450;29;20030;-92
2021/04/23 12:18:18;;;;;;;5.20;1.70;;;20.10;38.80;;;;;;4951979;29;20055;-92
2021/04/23 12:20:44;;;;;;;6.45;1.67;;;20.10;38.60;;;;;;4951010;29;20031;-96
2021/04/23 12:23:13;;;;;;;4.32;1.60;;;20.00;38.50;;;;;;4970170;29;20087;-92
2021/04/23 12:25:48;;;;;;;5.75;1.83;;;20.00;38.40;;;;;;4950706;29;20027;-92
2021/04/23 12:28:45;;;;;;;5.78;1.95;;;20.10;37.70;;;;;;4946890;29;20042;-89
2021/04/23 12:31:28;;;;;;;4.93;2.33;;;20.10;38.10;;;;;;4965630;29;20050;-90
2021/04/23 12:34:07;;;;;;;7.95;2.20;;;20.10;37.90;;;;;;4944145;29;20111;-92
2021/04/23 12:36:37;;;;;;;6.72;1.98;;;20.20;38.30;;;;;;4945778;29;20156;-91
2021/04/23 12:39:11;;;;;;;5.03;2.20;;;20.30;38.00;;;;;;4945796;29;20023;-91
2021/04/23 12:41:42;;;;;;;10.80;2.08;;;20.30;38.40;;;;;;4963919;29;20031;-92
2021/04/23 12:44:09;;;;;;;7.38;2.25;;;20.40;38.50;;;;;;4946267;29;20127;-91
2021/04/23 12:46:40;;;;;;;4.32;2.10;;;20.60;38.70;;;;;;4946871;29;20111;-91
2021/04/23 12:49:19;;;;;;;5.90;2.22;;;20.60;38.80;;;;;;4962225;28;20058;-91
2021/04/23 12:52:00;;;;;;;4.50;1.90;;;20.70;38.60;;;;;;4948703;29;20050;-89
2021/04/23 12:54:36;;;;;;;6.22;1.70;;;20.80;38.60;;;;;;4947929;29;20471;-91
2021/04/23 12:57:05;;;;;;;4.93;2.28;;;20.90;38.00;;;;;;4948747;29;20066;-92
2021/04/23 12:59:48;;;;;;;6.03;1.98;;;20.80;36.80;;;;;;4965238;29;20050;-90
2021/04/23 13:02:26;;;;;;;3.53;1.60;;;20.70;37.40;;;;;;4941309;29;20090;-90
2021/04/23 13:05:03;;;;;;;4.05;1.80;;;20.70;37.70;;;;;;4940487;29;20497;-91